createdAt,value
2018-09-16T00:00:31.807Z,9.43
2018-09-16T00:03:00.822Z,10.60
2018-09-16T00:05:29.530Z,12.30
2018-09-16T00:07:58.550Z,11.60
2018-09-16T00:10:27.589Z,7.43
2018-09-16T00:12:56.531Z,15.03
2018-09-16T00:15:25.570Z,11.20
2018-09-16T00:17:54.607Z,14.97
2018-09-16T00:20:24.133Z,7.00
2018-09-16T00:22:53.138Z,10.03
2018-09-16T00:25:22.144Z,11.87
2018-09-16T00:27:50.895Z,8.17
2018-09-16T00:30:19.892Z,10.93
2018-09-16T00:32:48.605Z,11.60
2018-09-16T00:35:18.309Z,14.00
2018-09-16T00:37:47.032Z,10.20
2018-09-16T00:40:16.041Z,11.30
2018-09-16T00:42:45.007Z,11.57
2018-09-16T00:45:13.754Z,15.03
2018-09-16T00:47:42.462Z,11.53
2018-09-16T00:50:11.492Z,8.77
2018-09-16T00:52:40.238Z,10.43
2018-09-16T00:55:08.953Z,13.47
2018-09-16T00:57:38.022Z,11.03
2018-09-16T01:00:07.318Z,10.70
2018-09-16T01:02:36.318Z,8.73
2018-09-16T01:05:05.222Z,11.07
2018-09-16T01:07:34.265Z,11.33
2018-09-16T01:10:03.488Z,9.90
2018-09-16T01:12:32.438Z,9.07
2018-09-16T01:15:06.290Z,11.77
2018-09-16T01:17:35.326Z,15.00
2018-09-16T01:20:04.380Z,16.73
2018-09-16T01:22:33.345Z,12.40
2018-09-16T01:25:02.600Z,9.50
2018-09-16T01:27:31.678Z,12.47
2018-09-16T01:30:00.828Z,14.10
2018-09-16T01:32:30.077Z,9.80
2018-09-16T01:34:59.109Z,11.00
2018-09-16T01:37:33.271Z,15.80
2018-09-16T01:40:02.082Z,9.43
2018-09-16T01:42:30.844Z,12.77
2018-09-16T01:44:59.854Z,12.40
2018-09-16T01:47:28.561Z,8.87
2018-09-16T01:49:57.254Z,13.20
2018-09-16T01:52:26.020Z,9.50
2018-09-16T01:54:54.737Z,13.73
2018-09-16T01:57:23.606Z,12.93
2018-09-16T01:59:52.282Z,16.53
2018-09-16T02:02:21.585Z,14.43
2018-09-16T02:04:52.363Z,11.47
2018-09-16T02:07:21.160Z,10.50
2018-09-16T02:09:49.910Z,10.47
2018-09-16T02:12:18.636Z,12.90
2018-09-16T02:14:47.704Z,18.50
2018-09-16T02:17:16.432Z,9.93
2018-09-16T02:19:45.488Z,12.40
2018-09-16T02:22:14.175Z,11.87
2018-09-16T02:24:43.530Z,9.90
2018-09-16T02:27:12.537Z,11.70
2018-09-16T02:29:41.492Z,11.37
2018-09-16T02:32:10.535Z,14.57
2018-09-16T02:34:39.751Z,9.17
2018-09-16T02:37:08.458Z,17.20
2018-09-16T02:39:37.853Z,13.60
2018-09-16T02:42:07.167Z,16.30
2018-09-16T02:44:36.167Z,15.90
2018-09-16T02:47:11.756Z,11.47
2018-09-16T02:49:40.806Z,11.60
2018-09-16T02:52:09.560Z,10.43
2018-09-16T02:54:38.270Z,12.87
2018-09-16T02:57:06.919Z,11.67
2018-09-16T02:59:36.229Z,15.20
2018-09-16T03:02:04.956Z,19.27
2018-09-16T03:04:33.917Z,10.60
2018-09-16T03:07:02.699Z,8.67
2018-09-16T03:09:31.696Z,18.80
2018-09-16T03:12:00.937Z,16.33
2018-09-16T03:14:29.646Z,13.30
2018-09-16T03:16:58.418Z,8.83
2018-09-16T03:19:33.639Z,14.27
2018-09-16T03:22:02.713Z,12.93
2018-09-16T03:24:31.839Z,7.03
2018-09-16T03:27:00.563Z,14.47
2018-09-16T03:29:29.889Z,12.33
2018-09-16T03:31:58.958Z,13.40
2018-09-16T03:34:28.483Z,13.53
2018-09-16T03:36:57.969Z,21.40
2018-09-16T03:39:27.202Z,12.53
2018-09-16T03:41:56.230Z,10.73
2018-09-16T03:44:25.372Z,8.40
2018-09-16T03:46:54.141Z,7.80
2018-09-16T03:49:23.090Z,13.13
2018-09-16T03:51:51.791Z,9.20
2018-09-16T03:54:20.831Z,11.73
2018-09-16T03:56:49.802Z,9.10
2018-09-16T03:59:18.597Z,9.10
2018-09-16T04:01:48.448Z,10.37
2018-09-16T04:04:17.179Z,14.10
2018-09-16T04:06:46.375Z,11.43
2018-09-16T04:09:15.642Z,7.07
2018-09-16T04:11:44.327Z,10.80
2018-09-16T04:14:13.093Z,10.27
2018-09-16T04:16:42.565Z,8.03
2018-09-16T04:19:11.954Z,14.37
2018-09-16T04:21:41.180Z,7.60
2018-09-16T04:24:09.890Z,11.50
2018-09-16T04:26:39.023Z,12.03
2018-09-16T04:29:08.428Z,10.30
2018-09-16T04:31:37.197Z,9.87
2018-09-16T04:34:05.987Z,8.57
2018-09-16T04:36:35.142Z,16.60
2018-09-16T04:39:04.086Z,7.37
2018-09-16T04:41:32.840Z,16.93
2018-09-16T04:44:01.580Z,6.13
2018-09-16T04:46:30.685Z,11.03
2018-09-16T04:48:59.938Z,8.03
2018-09-16T04:51:28.909Z,9.70
2018-09-16T04:53:58.132Z,27.03
2018-09-16T04:56:26.864Z,10.67
2018-09-16T04:58:55.655Z,10.20
2018-09-16T05:01:25.747Z,12.97
2018-09-16T05:03:55.426Z,15.33
2018-09-16T05:06:24.509Z,10.40
2018-09-16T05:08:53.296Z,15.73
2018-09-16T05:11:22.248Z,14.03
2018-09-16T05:13:51.313Z,11.03
2018-09-16T05:16:20.950Z,14.20
2018-09-16T05:18:49.690Z,12.37
2018-09-16T05:21:18.725Z,13.40
2018-09-16T05:23:47.733Z,9.77
2018-09-16T05:26:16.768Z,10.90
2018-09-16T05:28:45.465Z,13.60
2018-09-16T05:31:14.492Z,27.53
2018-09-16T05:33:43.558Z,16.17
2018-09-16T05:36:12.903Z,11.83
2018-09-16T05:38:41.876Z,11.30
2018-09-16T05:41:11.182Z,14.63
2018-09-16T05:43:40.473Z,11.70
2018-09-16T05:46:09.216Z,15.00
2018-09-16T05:48:38.536Z,13.63
2018-09-16T05:51:07.631Z,16.83
2018-09-16T05:53:36.518Z,21.83
2018-09-16T05:56:05.885Z,13.73
2018-09-16T05:58:34.924Z,20.90
2018-09-16T06:01:03.932Z,17.07
2018-09-16T06:03:33.010Z,17.17
2018-09-16T06:06:01.787Z,16.90
2018-09-16T06:08:31.131Z,23.03
2018-09-16T06:11:00.851Z,29.23
2018-09-16T06:13:29.683Z,16.40
2018-09-16T06:15:58.914Z,16.20
2018-09-16T06:18:27.642Z,17.67
2018-09-16T06:20:56.678Z,13.07
2018-09-16T06:23:25.625Z,26.37
2018-09-16T06:25:54.671Z,20.17
2018-09-16T06:28:23.996Z,13.10
2018-09-16T06:30:52.738Z,18.67
2018-09-16T06:33:21.978Z,18.43
2018-09-16T06:35:50.823Z,19.73
2018-09-16T06:38:20.085Z,22.37
2018-09-16T06:40:49.116Z,19.83
2018-09-16T06:43:17.833Z,18.63
2018-09-16T06:45:46.593Z,24.83
2018-09-16T06:48:15.643Z,25.73
2018-09-16T06:50:44.378Z,27.00
2018-09-16T06:53:13.119Z,25.80
2018-09-16T06:55:42.176Z,22.03
2018-09-16T06:58:10.891Z,24.27
2018-09-16T07:00:40.081Z,26.10
2018-09-16T07:03:08.818Z,22.50
2018-09-16T07:05:37.736Z,20.67
2018-09-16T07:08:06.746Z,26.90
2018-09-16T07:10:35.722Z,23.97
2018-09-16T07:13:04.511Z,25.43
2018-09-16T07:15:33.535Z,19.67
2018-09-16T07:18:03.246Z,22.70
2018-09-16T07:20:32.079Z,25.63
2018-09-16T07:23:01.044Z,26.53
2018-09-16T07:25:29.826Z,27.70
2018-09-16T07:27:58.610Z,25.00
2018-09-16T07:30:27.726Z,25.50
2018-09-16T07:32:57.361Z,25.60
2018-09-16T07:35:26.215Z,28.20
2018-09-16T07:37:54.990Z,23.90
2018-09-16T07:40:24.207Z,35.93
2018-09-16T07:42:53.584Z,27.50
2018-09-16T07:45:22.684Z,33.27
2018-09-16T07:47:52.027Z,21.17
2018-09-16T07:50:20.773Z,23.93
2018-09-16T07:52:49.721Z,31.90
2018-09-16T07:55:18.598Z,25.87
2018-09-16T07:57:47.616Z,21.33
2018-09-16T08:00:16.642Z,26.67
2018-09-16T08:02:45.430Z,30.93
2018-09-16T08:05:14.194Z,20.00
2018-09-16T08:07:42.966Z,22.63
2018-09-16T08:10:12.104Z,30.80
2018-09-16T08:12:41.479Z,23.57
2018-09-16T08:15:11.077Z,20.80
2018-09-16T08:17:39.870Z,23.30
2018-09-16T08:20:08.965Z,24.63
2018-09-16T08:22:37.717Z,21.63
2018-09-16T08:25:06.871Z,18.30
2018-09-16T08:27:35.629Z,21.30
2018-09-16T08:30:04.894Z,21.10
2018-09-16T08:32:33.666Z,22.97
2018-09-16T08:35:02.695Z,23.80
2018-09-16T08:37:31.561Z,19.57
2018-09-16T08:40:00.326Z,19.07
2018-09-16T08:42:29.552Z,15.87
2018-09-16T08:44:59.200Z,17.27
2018-09-16T08:47:28.029Z,19.03
2018-09-16T08:49:57.643Z,19.63
2018-09-16T08:52:26.555Z,13.20
2018-09-16T08:54:55.407Z,14.40
2018-09-16T08:57:24.245Z,19.23
2018-09-16T08:59:53.461Z,15.60
2018-09-16T09:02:22.375Z,13.90
2018-09-16T09:04:51.208Z,17.87
2018-09-16T09:07:28.689Z,16.33
2018-09-16T09:09:59.124Z,15.20
2018-09-16T09:12:28.102Z,15.60
2018-09-16T09:14:56.842Z,28.60
2018-09-16T09:17:26.011Z,13.10
2018-09-16T09:19:57.758Z,14.73
2018-09-16T09:22:26.542Z,12.63
2018-09-16T09:24:55.575Z,10.10
2018-09-16T09:27:24.369Z,13.93
2018-09-16T09:29:53.052Z,18.23
2018-09-16T09:32:21.947Z,9.67
2018-09-16T09:34:50.793Z,11.97
2018-09-16T09:37:19.775Z,14.37
2018-09-16T09:39:48.909Z,10.80
2018-09-16T09:42:18.213Z,10.50
2018-09-16T09:44:47.032Z,9.03
2018-09-16T09:47:16.043Z,6.73
2018-09-16T09:49:44.906Z,5.07
2018-09-16T09:52:13.682Z,11.87
2018-09-16T09:54:42.986Z,9.00
2018-09-16T09:57:11.731Z,9.63
2018-09-16T09:59:41.075Z,11.57
2018-09-16T10:02:10.150Z,6.53
2018-09-16T10:04:39.341Z,9.27
2018-09-16T10:07:08.246Z,10.70
2018-09-16T10:09:36.996Z,11.40
2018-09-16T10:12:06.051Z,12.50
2018-09-16T10:14:35.118Z,7.50
2018-09-16T10:17:04.209Z,11.40
2018-09-16T10:19:33.010Z,9.17
2018-09-16T10:22:02.131Z,15.53
2018-09-16T10:24:31.575Z,7.70
2018-09-16T10:27:00.260Z,7.83
2018-09-16T10:29:29.224Z,15.60
2018-09-16T10:31:57.979Z,5.67
2018-09-16T10:34:27.297Z,11.93
2018-09-16T10:36:56.233Z,5.70
2018-09-16T10:39:25.511Z,6.53
2018-09-16T10:41:54.894Z,9.40
2018-09-16T10:44:23.969Z,7.67
2018-09-16T10:46:53.132Z,9.17
2018-09-16T10:49:21.861Z,15.33
2018-09-16T10:51:51.686Z,6.00
2018-09-16T10:54:20.532Z,5.07
2018-09-16T10:56:49.350Z,7.17
2018-09-16T10:59:18.165Z,5.70
2018-09-16T11:01:47.618Z,9.40
2018-09-16T11:04:16.782Z,8.20
2018-09-16T11:06:46.254Z,9.47
2018-09-16T11:09:15.122Z,4.00
2018-09-16T11:11:44.154Z,5.90
2018-09-16T11:14:13.021Z,4.70
2018-09-16T11:16:42.054Z,9.33
2018-09-16T11:19:11.106Z,4.30
2018-09-16T11:21:39.893Z,6.83
2018-09-16T11:24:08.984Z,5.80
2018-09-16T11:26:37.756Z,6.67
2018-09-16T11:29:09.583Z,12.10
2018-09-16T11:31:38.946Z,5.53
2018-09-16T11:34:08.047Z,7.17
2018-09-16T11:36:36.828Z,8.60
2018-09-16T11:39:08.778Z,7.13
2018-09-16T11:41:37.650Z,9.73
2018-09-16T11:44:06.484Z,4.97
2018-09-16T11:46:35.308Z,3.90
2018-09-16T11:49:04.124Z,5.00
2018-09-16T11:51:33.068Z,5.97
2018-09-16T11:54:01.872Z,6.43
2018-09-16T11:56:31.383Z,6.23
2018-09-16T11:59:00.717Z,4.87
2018-09-16T12:01:29.822Z,13.77
2018-09-16T12:03:58.560Z,5.60
2018-09-16T12:06:27.932Z,4.87
2018-09-16T12:08:56.714Z,5.87
2018-09-16T12:11:26.379Z,4.57
2018-09-16T12:13:55.697Z,7.10
2018-09-16T12:16:24.773Z,7.03
2018-09-16T12:18:53.518Z,2.70
2018-09-16T12:21:22.912Z,4.30
2018-09-16T12:23:52.038Z,7.10
2018-09-16T12:26:21.820Z,6.80
2018-09-16T12:28:50.833Z,8.50
2018-09-16T12:31:19.571Z,5.63
2018-09-16T12:33:48.834Z,5.70
2018-09-16T12:36:17.838Z,7.10
2018-09-16T12:38:46.594Z,6.33
2018-09-16T12:41:15.416Z,7.03
2018-09-16T12:43:44.492Z,4.03
2018-09-16T12:46:13.610Z,6.70
2018-09-16T12:48:42.981Z,7.43
2018-09-16T12:51:12.328Z,4.73
2018-09-16T12:53:41.190Z,8.70
2018-09-16T12:56:10.243Z,4.80
2018-09-16T12:58:39.558Z,6.00
2018-09-16T13:01:08.392Z,5.20
2018-09-16T13:03:37.091Z,9.83
2018-09-16T13:06:05.871Z,7.30
2018-09-16T13:08:34.693Z,4.00
2018-09-16T13:11:03.673Z,6.50
2018-09-16T13:13:33.338Z,4.63
2018-09-16T13:16:02.523Z,4.13
2018-09-16T13:18:31.259Z,3.40
2018-09-16T13:21:00.016Z,2.87
2018-09-16T13:23:28.762Z,11.10
2018-09-16T13:25:58.272Z,2.70
2018-09-16T13:28:27.565Z,5.60
2018-09-16T13:30:56.533Z,6.50
2018-09-16T13:33:26.037Z,3.87
2018-09-16T13:35:55.028Z,5.57
2018-09-16T13:38:24.084Z,3.57
2018-09-16T13:40:53.105Z,5.87
2018-09-16T13:43:22.498Z,11.50
2018-09-16T13:45:51.557Z,10.97
2018-09-16T13:48:20.348Z,12.53
2018-09-16T13:50:49.108Z,14.17
2018-09-16T13:53:17.876Z,10.00
2018-09-16T13:55:47.334Z,8.73
2018-09-16T13:58:16.422Z,5.77
2018-09-16T14:00:45.424Z,8.30
2018-09-16T14:03:14.229Z,6.10
2018-09-16T14:05:43.318Z,4.40
2018-09-16T14:08:12.037Z,6.07
2018-09-16T14:10:40.902Z,6.50
2018-09-16T14:13:10.016Z,4.00
2018-09-16T14:15:39.046Z,5.20
2018-09-16T14:18:08.000Z,7.33
2018-09-16T14:20:36.753Z,3.50
2018-09-16T14:23:05.479Z,6.70
2018-09-16T14:25:34.570Z,4.10
2018-09-16T14:28:03.487Z,5.83
2018-09-16T14:30:32.480Z,7.80
2018-09-16T14:33:01.530Z,8.63
2018-09-16T14:35:31.032Z,3.57
2018-09-16T14:37:59.744Z,11.13
2018-09-16T14:40:28.690Z,6.00
2018-09-16T14:42:57.805Z,9.03
2018-09-16T14:45:27.282Z,2.27
2018-09-16T14:47:56.395Z,5.23
2018-09-16T14:50:25.615Z,6.30
2018-09-16T14:52:54.311Z,11.80
2018-09-16T14:55:24.521Z,6.87
2018-09-16T14:57:53.675Z,2.10
2018-09-16T15:00:22.413Z,7.17
2018-09-16T15:02:51.579Z,2.63
2018-09-16T15:05:20.520Z,6.10
2018-09-16T15:07:50.155Z,5.37
2018-09-16T15:10:18.967Z,5.60
2018-09-16T15:12:50.953Z,2.67
2018-09-16T15:15:24.244Z,6.30
2018-09-16T15:17:53.950Z,5.43
2018-09-16T15:20:22.849Z,5.93
2018-09-16T15:22:53.130Z,5.43
2018-09-16T15:25:22.205Z,1.77
2018-09-16T15:27:53.106Z,2.50
2018-09-16T15:30:23.058Z,5.77
2018-09-16T15:32:52.125Z,5.23
2018-09-16T15:35:21.002Z,5.53
2018-09-16T15:37:49.803Z,3.90
2018-09-16T15:40:19.080Z,3.93
2018-09-16T15:42:49.371Z,4.57
2018-09-16T15:45:18.489Z,3.43
2018-09-16T15:47:47.826Z,3.30
2018-09-16T15:50:16.827Z,5.27
2018-09-16T15:52:46.836Z,6.13
2018-09-16T15:55:15.821Z,3.40
2018-09-16T15:57:46.903Z,8.07
2018-09-16T16:00:15.653Z,6.33
2018-09-16T16:02:45.788Z,4.77
2018-09-16T16:05:21.315Z,3.03
2018-09-16T16:07:50.027Z,7.13
2018-09-16T16:10:19.209Z,4.70
2018-09-16T16:12:48.226Z,5.17
2018-09-16T16:15:17.335Z,4.13
2018-09-16T16:17:46.424Z,8.03
2018-09-16T16:20:15.417Z,2.73
2018-09-16T16:22:44.435Z,3.67
2018-09-16T16:25:13.717Z,7.40
2018-09-16T16:27:42.500Z,6.90
2018-09-16T16:30:11.333Z,5.07
2018-09-16T16:32:40.442Z,3.30
2018-09-16T16:35:09.906Z,9.13
2018-09-16T16:37:39.380Z,7.27
2018-09-16T16:40:08.182Z,4.20
2018-09-16T16:42:36.994Z,3.90
2018-09-16T16:45:06.234Z,4.30
2018-09-16T16:47:35.289Z,5.67
2018-09-16T16:50:05.431Z,5.27
2018-09-16T16:52:34.632Z,4.97
2018-09-16T16:55:03.358Z,5.00
2018-09-16T16:57:32.679Z,4.90
2018-09-16T17:00:03.562Z,3.73
2018-09-16T17:02:32.309Z,6.27
2018-09-16T17:05:07.464Z,2.77
2018-09-16T17:07:36.266Z,3.90
2018-09-16T17:10:05.045Z,4.67
2018-09-16T17:12:34.046Z,6.20
2018-09-16T17:15:03.063Z,3.57
2018-09-16T17:17:32.600Z,3.80
2018-09-16T17:20:01.659Z,3.40
2018-09-16T17:22:32.241Z,8.27
2018-09-16T17:25:01.285Z,2.50
2018-09-16T17:27:30.709Z,4.47
2018-09-16T17:30:06.371Z,3.57
2018-09-16T17:32:35.143Z,2.57
2018-09-16T17:35:04.124Z,4.03
2018-09-16T17:37:33.003Z,2.23
2018-09-16T17:40:01.970Z,4.27
2018-09-16T17:42:31.282Z,2.63
2018-09-16T17:45:00.140Z,2.60
2018-09-16T17:47:30.173Z,2.70
2018-09-16T17:49:59.549Z,3.60
2018-09-16T17:53:25.573Z,4.03
2018-09-16T17:55:55.114Z,8.13
2018-09-16T17:58:25.566Z,3.07
2018-09-16T18:00:55.473Z,3.80
2018-09-16T18:03:24.504Z,16.00
2018-09-16T18:05:55.520Z,4.50
2018-09-16T18:08:29.581Z,2.40
2018-09-16T18:10:59.082Z,5.03
2018-09-16T18:13:30.819Z,6.07
2018-09-16T18:16:00.180Z,6.17
2018-09-16T18:18:29.337Z,3.83
2018-09-16T18:20:59.354Z,7.80
2018-09-16T18:23:29.821Z,5.43
2018-09-16T18:25:58.619Z,7.63
2018-09-16T18:28:29.053Z,4.93
2018-09-16T18:30:59.026Z,5.00
2018-09-16T18:33:31.128Z,5.93
2018-09-16T18:36:01.770Z,5.30
2018-09-16T18:38:30.576Z,5.17
2018-09-16T18:40:59.669Z,8.33
2018-09-16T18:43:28.475Z,4.57
2018-09-16T18:45:57.547Z,4.70
2018-09-16T18:48:26.393Z,3.60
2018-09-16T18:50:55.436Z,2.43
2018-09-16T18:53:24.161Z,1.60
2018-09-16T18:55:53.039Z,5.80
2018-09-16T18:58:21.881Z,5.40
2018-09-16T19:00:50.705Z,4.33
2018-09-16T19:03:19.814Z,10.57
2018-09-16T19:05:48.584Z,5.90
2018-09-16T19:08:17.408Z,4.30
2018-09-16T19:10:46.625Z,4.73
2018-09-16T19:13:15.729Z,17.17
2018-09-16T19:15:45.075Z,4.13
2018-09-16T19:18:14.061Z,5.10
2018-09-16T19:20:43.192Z,4.67
2018-09-16T19:23:12.832Z,3.87
2018-09-16T19:25:41.715Z,4.63
2018-09-16T19:28:10.774Z,7.50
2018-09-16T19:30:39.653Z,9.97
2018-09-16T19:33:08.529Z,4.80
2018-09-16T19:35:37.938Z,2.63
2018-09-16T19:38:07.239Z,4.70
2018-09-16T19:40:37.256Z,4.03
2018-09-16T19:43:08.108Z,4.50
2018-09-16T19:45:37.009Z,5.90
2018-09-16T19:48:05.747Z,3.60
2018-09-16T19:50:34.741Z,4.40
2018-09-16T19:53:03.840Z,4.90
2018-09-16T19:55:32.860Z,2.60
2018-09-16T19:58:01.998Z,4.73
2018-09-16T20:00:31.014Z,5.30
2018-09-16T20:03:00.365Z,5.57
2018-09-16T20:05:29.493Z,4.20
2018-09-16T20:07:58.455Z,5.10
2018-09-16T20:10:27.266Z,4.30
2018-09-16T20:12:56.116Z,6.63
2018-09-16T20:15:25.727Z,15.83
2018-09-16T20:17:54.849Z,12.43
2018-09-16T20:20:23.585Z,13.80
2018-09-16T20:22:53.213Z,5.70
2018-09-16T20:25:21.966Z,7.20
2018-09-16T20:27:51.392Z,8.13
2018-09-16T20:30:20.208Z,5.70
2018-09-16T20:32:49.210Z,11.10
2018-09-16T20:35:18.207Z,3.80
2018-09-16T20:37:48.255Z,4.60
2018-09-16T20:40:18.028Z,11.73
2018-09-16T20:42:47.901Z,5.13
2018-09-16T20:45:17.836Z,3.30
2018-09-16T20:47:47.856Z,12.10
2018-09-16T20:50:20.711Z,3.90
2018-09-16T20:52:51.302Z,10.87
2018-09-16T20:55:20.379Z,7.67
2018-09-16T20:57:49.203Z,7.63
2018-09-16T21:00:17.942Z,6.90
2018-09-16T21:02:46.707Z,3.37
2018-09-16T21:05:15.486Z,4.27
2018-09-16T21:07:44.354Z,8.00
2018-09-16T21:10:13.468Z,6.60
2018-09-16T21:12:42.763Z,11.20
2018-09-16T21:15:11.736Z,5.50
2018-09-16T21:17:40.797Z,4.97
2018-09-16T21:20:09.523Z,5.60
2018-09-16T21:22:38.738Z,4.67
2018-09-16T21:25:07.792Z,3.83
2018-09-16T21:27:36.562Z,6.10
2018-09-16T21:30:05.403Z,6.13
2018-09-16T21:32:34.198Z,4.23
2018-09-16T21:35:03.618Z,3.70
2018-09-16T21:37:32.658Z,5.87
2018-09-16T21:40:01.767Z,8.27
2018-09-16T21:42:30.936Z,4.97
2018-09-16T21:44:59.721Z,6.47
2018-09-16T21:47:28.969Z,13.17
2018-09-16T21:49:58.075Z,7.33
2018-09-16T21:52:27.473Z,3.17
2018-09-16T21:54:56.550Z,8.43
2018-09-16T21:57:25.371Z,8.13
2018-09-16T21:59:54.142Z,8.70
2018-09-16T22:02:22.991Z,11.53
2018-09-16T22:04:52.058Z,10.37
2018-09-16T22:07:21.159Z,5.30
2018-09-16T22:09:50.138Z,4.57
2018-09-16T22:12:19.628Z,10.47
2018-09-16T22:14:48.770Z,9.10
2018-09-16T22:17:17.498Z,8.00
2018-09-16T22:19:46.588Z,5.60
2018-09-16T22:22:15.601Z,5.30
2018-09-16T22:24:44.418Z,8.63
2018-09-16T22:27:13.769Z,9.10
2018-09-16T22:29:42.885Z,11.23
2018-09-16T22:32:12.474Z,8.30
2018-09-16T22:34:41.562Z,12.60
2018-09-16T22:37:10.711Z,7.30
2018-09-16T22:39:39.489Z,6.13
2018-09-16T22:42:09.005Z,14.93
2018-09-16T22:44:37.860Z,9.07
2018-09-16T22:47:06.629Z,5.27
2018-09-16T22:49:35.735Z,14.40
2018-09-16T22:52:04.757Z,7.00
2018-09-16T22:54:33.508Z,7.93
2018-09-16T22:57:02.517Z,15.07
2018-09-16T22:59:31.934Z,12.97
2018-09-16T23:02:00.718Z,9.27
2018-09-16T23:04:29.921Z,13.13
2018-09-16T23:06:58.953Z,8.53
2018-09-16T23:09:27.786Z,7.93
2018-09-16T23:11:56.522Z,6.33
2018-09-16T23:14:25.836Z,10.73
2018-09-16T23:16:54.836Z,5.63
2018-09-16T23:19:23.838Z,6.63
2018-09-16T23:21:52.870Z,8.07
2018-09-16T23:24:21.631Z,9.00
2018-09-16T23:26:50.360Z,8.43
2018-09-16T23:29:19.681Z,6.57
2018-09-16T23:31:48.827Z,11.17
2018-09-16T23:34:17.650Z,9.37
2018-09-16T23:36:46.818Z,8.07
2018-09-16T23:39:15.979Z,8.83
2018-09-16T23:41:44.751Z,9.27
2018-09-16T23:44:13.647Z,9.17
2018-09-16T23:46:42.434Z,8.83
2018-09-16T23:49:11.590Z,12.03
2018-09-16T23:51:40.649Z,6.33
2018-09-16T23:54:10.293Z,9.57
2018-09-16T23:56:39.484Z,12.80
2018-09-16T23:59:08.310Z,10.90
